createdAt,value
2022-10-02T00:01:19.476Z,95.75
2022-10-02T00:03:48.609Z,95.60
2022-10-02T00:06:21.019Z,95.48
2022-10-02T00:08:49.185Z,95.41
2022-10-02T00:11:19.831Z,95.19
2022-10-02T00:13:51.290Z,95.18
2022-10-02T00:16:30.290Z,95.07
2022-10-02T00:18:58.787Z,95.10
2022-10-02T00:21:37.728Z,95.03
2022-10-02T00:24:07.350Z,95.01
2022-10-02T00:26:42.163Z,95.05
2022-10-02T00:29:21.393Z,95.02
2022-10-02T00:31:55.687Z,95.02
2022-10-02T00:34:30.721Z,95.03
2022-10-02T00:37:04.255Z,95.02
2022-10-02T00:39:41.544Z,95.00
2022-10-02T00:42:34.451Z,95.07
2022-10-02T00:45:26.595Z,95.19
2022-10-02T00:47:59.571Z,95.29
2022-10-02T00:50:35.191Z,95.31
2022-10-02T00:53:10.303Z,95.35
2022-10-02T00:55:49.829Z,95.35
2022-10-02T00:58:28.885Z,95.31
2022-10-02T01:01:04.702Z,95.29
2022-10-02T01:03:39.761Z,95.27
2022-10-02T01:06:08.759Z,95.27
2022-10-02T01:08:37.428Z,95.21
2022-10-02T01:11:06.574Z,95.22
2022-10-02T01:13:34.839Z,95.38
2022-10-02T01:16:04.392Z,95.32
2022-10-02T01:18:32.957Z,95.29
2022-10-02T01:21:03.416Z,95.32
2022-10-02T01:23:36.996Z,95.28
2022-10-02T01:26:07.004Z,95.23
2022-10-02T01:28:35.045Z,95.28
2022-10-02T01:31:07.548Z,95.24
2022-10-02T01:33:35.606Z,95.25
2022-10-02T01:36:03.692Z,95.37
2022-10-02T01:38:32.003Z,95.37
2022-10-02T01:41:00.026Z,95.31
2022-10-02T01:43:31.765Z,95.41
2022-10-02T01:46:07.605Z,95.54
2022-10-02T01:48:46.897Z,95.53
2022-10-02T01:51:27.560Z,95.67
2022-10-02T01:54:04.623Z,95.59
2022-10-02T01:56:37.288Z,95.61
2022-10-02T01:59:12.838Z,95.59
2022-10-02T02:01:45.321Z,95.62
2022-10-02T02:04:22.788Z,95.66
2022-10-02T02:06:56.892Z,95.78
2022-10-02T02:09:30.950Z,95.77
2022-10-02T02:12:02.545Z,95.82
2022-10-02T02:14:34.904Z,95.87
2022-10-02T02:17:04.009Z,95.85
2022-10-02T02:19:35.630Z,95.85
2022-10-02T02:22:07.889Z,95.91
2022-10-02T02:24:39.683Z,95.89
2022-10-02T02:27:09.924Z,96.03
2022-10-02T02:29:39.898Z,96.09
2022-10-02T02:32:10.003Z,96.13
2022-10-02T02:34:40.876Z,96.09
2022-10-02T02:37:13.772Z,96.09
2022-10-02T02:39:47.020Z,96.11
2022-10-02T02:42:17.921Z,96.00
2022-10-02T02:44:51.136Z,95.85
2022-10-02T02:47:22.537Z,95.75
2022-10-02T02:49:53.751Z,95.77
2022-10-02T02:52:23.767Z,95.71
2022-10-02T02:55:07.886Z,95.74
2022-10-02T02:57:39.778Z,95.58
2022-10-02T03:00:10.055Z,95.59
2022-10-02T03:02:38.144Z,95.58
2022-10-02T03:05:13.236Z,95.66
2022-10-02T03:07:41.927Z,95.70
2022-10-02T03:10:15.404Z,95.73
2022-10-02T03:12:54.804Z,95.74
2022-10-02T03:15:29.265Z,95.69
2022-10-02T03:18:09.793Z,95.60
2022-10-02T03:20:42.531Z,95.48
2022-10-02T03:23:17.867Z,95.39
2022-10-02T03:25:49.533Z,95.35
2022-10-02T03:28:37.411Z,95.41
2022-10-02T03:31:09.805Z,95.42
2022-10-02T03:33:38.704Z,95.40
2022-10-02T03:36:07.053Z,95.37
2022-10-02T03:38:35.084Z,95.38
2022-10-02T03:41:03.009Z,95.36
2022-10-02T03:43:31.737Z,95.25
2022-10-02T03:45:59.729Z,95.15
2022-10-02T03:48:29.038Z,95.03
2022-10-02T03:50:56.969Z,94.84
2022-10-02T03:53:26.628Z,94.63
2022-10-02T03:55:56.623Z,94.47
2022-10-02T03:58:25.000Z,94.35
2022-10-02T04:00:58.380Z,94.18
2022-10-02T04:03:30.413Z,94.22
2022-10-02T04:06:02.070Z,94.14
2022-10-02T04:08:33.453Z,94.13
2022-10-02T04:11:05.941Z,94.01
2022-10-02T04:13:37.809Z,93.88
2022-10-02T04:16:11.239Z,93.76
2022-10-02T04:18:47.413Z,93.61
2022-10-02T04:21:25.454Z,93.41
2022-10-02T04:23:57.927Z,93.28
2022-10-02T04:26:29.301Z,93.12
2022-10-02T04:29:01.272Z,92.87
2022-10-02T04:31:29.792Z,92.64
2022-10-02T04:34:02.240Z,92.47
2022-10-02T04:36:33.960Z,92.34
2022-10-02T04:39:29.857Z,92.21
2022-10-02T04:42:15.203Z,92.09
2022-10-02T04:45:01.458Z,92.02
2022-10-02T04:47:49.446Z,91.89
2022-10-02T04:50:30.545Z,91.77
2022-10-02T04:53:13.045Z,91.66
2022-10-02T04:55:51.379Z,91.66
2022-10-02T04:58:31.796Z,91.55
2022-10-02T05:01:04.989Z,91.51
2022-10-02T05:03:54.085Z,91.50
2022-10-02T05:06:34.938Z,91.47
2022-10-02T05:09:10.321Z,91.43
2022-10-02T05:11:49.715Z,91.48
2022-10-02T05:14:54.726Z,91.57
2022-10-02T05:17:36.168Z,91.77
2022-10-02T05:20:18.813Z,91.87
2022-10-02T05:23:01.752Z,92.01
2022-10-02T05:25:47.648Z,91.94
2022-10-02T05:28:25.905Z,91.98
2022-10-02T05:31:04.164Z,92.01
2022-10-02T05:33:41.822Z,92.09
2022-10-02T05:36:24.951Z,92.05
2022-10-02T05:39:07.096Z,91.94
2022-10-02T05:41:43.772Z,91.86
2022-10-02T05:44:16.651Z,91.90
2022-10-02T05:46:47.698Z,91.66
2022-10-02T05:49:20.090Z,91.60
2022-10-02T05:51:55.548Z,91.62
2022-10-02T05:54:35.247Z,91.71
2022-10-02T05:57:07.536Z,91.79
2022-10-02T05:59:40.713Z,91.73
2022-10-02T06:02:17.540Z,91.82
2022-10-02T06:04:50.414Z,91.70
2022-10-02T06:07:19.135Z,91.78
2022-10-02T06:09:50.863Z,91.73
2022-10-02T06:12:26.550Z,91.79
2022-10-02T06:14:59.988Z,91.55
2022-10-02T06:17:30.998Z,91.52
2022-10-02T06:20:03.956Z,91.52
2022-10-02T06:22:36.138Z,91.11
2022-10-02T06:25:07.644Z,90.89
2022-10-02T06:27:41.776Z,90.60
2022-10-02T06:30:13.724Z,90.48
2022-10-02T06:32:47.520Z,90.01
2022-10-02T06:35:16.780Z,89.62
2022-10-02T06:37:51.863Z,89.43
2022-10-02T06:40:38.557Z,89.11
2022-10-02T06:43:13.238Z,88.65
2022-10-02T06:45:46.118Z,88.52
2022-10-02T06:48:22.571Z,88.42
2022-10-02T06:50:57.095Z,87.90
2022-10-02T06:53:36.547Z,87.47
2022-10-02T06:56:15.018Z,87.12
2022-10-02T06:58:52.297Z,86.22
2022-10-02T07:01:26.679Z,84.47
2022-10-02T07:04:05.533Z,82.59
2022-10-02T07:06:40.372Z,80.32
2022-10-02T07:09:34.098Z,78.41
2022-10-02T07:12:10.961Z,76.72
2022-10-02T07:14:53.589Z,75.85
2022-10-02T07:17:33.481Z,74.22
2022-10-02T07:20:16.657Z,72.91
2022-10-02T07:22:56.361Z,72.24
2022-10-02T07:25:46.027Z,70.43
2022-10-02T07:28:19.336Z,70.52
2022-10-02T07:30:54.890Z,69.06
2022-10-02T07:33:31.684Z,69.23
2022-10-02T07:36:03.696Z,69.01
2022-10-02T07:38:46.314Z,69.17
2022-10-02T07:41:25.005Z,68.88
2022-10-02T07:43:58.669Z,69.09
2022-10-02T07:46:35.271Z,67.93
2022-10-02T07:49:14.240Z,67.59
2022-10-02T07:51:48.438Z,67.14
2022-10-02T07:54:40.019Z,66.79
2022-10-02T07:57:21.448Z,65.66
2022-10-02T07:59:52.964Z,66.38
2022-10-02T08:02:26.160Z,68.00
2022-10-02T08:04:56.556Z,67.21
2022-10-02T08:07:24.533Z,66.20
2022-10-02T08:09:53.769Z,65.32
2022-10-02T08:12:28.185Z,65.48
2022-10-02T08:14:59.764Z,64.20
2022-10-02T08:17:33.574Z,63.51
2022-10-02T08:20:04.871Z,63.39
2022-10-02T08:22:36.744Z,63.41
2022-10-02T08:25:10.833Z,62.67
2022-10-02T08:27:49.055Z,64.40
2022-10-02T08:30:19.780Z,62.34
2022-10-02T08:32:48.745Z,63.40
2022-10-02T08:35:19.497Z,62.59
2022-10-02T08:38:10.183Z,63.50
2022-10-02T08:41:16.073Z,62.89
2022-10-02T08:44:35.979Z,65.20
2022-10-02T08:47:21.207Z,65.75
2022-10-02T08:50:15.743Z,66.21
2022-10-02T08:53:02.675Z,67.27
2022-10-02T08:55:47.376Z,66.90
2022-10-02T08:58:46.950Z,67.87
2022-10-02T09:01:46.701Z,70.16
2022-10-02T09:04:41.836Z,70.24
2022-10-02T09:07:48.410Z,69.71
2022-10-02T09:10:45.868Z,68.90
2022-10-02T09:13:44.642Z,69.56
2022-10-02T09:16:16.527Z,68.57
2022-10-02T09:18:52.394Z,67.68
2022-10-02T09:21:31.284Z,66.09
2022-10-02T09:24:37.598Z,65.39
2022-10-02T09:27:42.668Z,62.56
2022-10-02T09:30:18.072Z,61.42
2022-10-02T09:33:22.697Z,62.36
2022-10-02T09:36:19.003Z,61.45
2022-10-02T09:39:02.859Z,59.62
2022-10-02T09:42:03.929Z,59.89
2022-10-02T09:44:46.640Z,59.92
2022-10-02T09:47:38.599Z,61.75
2022-10-02T09:50:23.286Z,60.73
2022-10-02T09:53:09.135Z,61.56
2022-10-02T09:56:05.540Z,62.08
2022-10-02T09:59:04.964Z,64.15
2022-10-02T10:01:50.002Z,67.02
2022-10-02T10:05:01.225Z,69.38
2022-10-02T10:07:50.012Z,71.85
2022-10-02T10:10:46.170Z,74.24
2022-10-02T10:13:51.863Z,75.86
2022-10-02T10:16:51.117Z,77.61
2022-10-02T10:19:51.512Z,78.88
2022-10-02T10:22:47.389Z,79.93
2022-10-02T10:25:51.656Z,80.95
2022-10-02T10:28:38.199Z,82.34
2022-10-02T10:31:36.086Z,82.80
2022-10-02T10:34:57.055Z,83.42
2022-10-02T10:38:05.148Z,84.80
2022-10-02T10:40:38.725Z,83.88
2022-10-02T10:43:51.864Z,83.84
2022-10-02T10:46:36.157Z,80.08
2022-10-02T10:49:26.238Z,79.64
2022-10-02T10:51:59.322Z,79.64
2022-10-02T10:54:54.283Z,79.93
2022-10-02T10:57:37.199Z,80.40
2022-10-02T11:00:17.479Z,80.06
2022-10-02T11:03:00.450Z,81.41
2022-10-02T11:06:03.922Z,81.60
2022-10-02T11:08:46.988Z,81.53
2022-10-02T11:11:21.130Z,81.05
2022-10-02T11:13:58.443Z,82.00
2022-10-02T11:16:39.784Z,82.28
2022-10-02T11:19:37.409Z,83.07
2022-10-02T11:22:17.849Z,82.32
2022-10-02T11:25:13.008Z,81.93
2022-10-02T11:28:12.296Z,81.71
2022-10-02T11:30:52.115Z,81.95
2022-10-02T11:33:52.135Z,81.10
2022-10-02T11:36:30.044Z,79.01
2022-10-02T11:39:14.273Z,79.09
2022-10-02T11:42:05.940Z,77.75
2022-10-02T11:44:56.098Z,77.46
2022-10-02T11:47:42.200Z,75.65
2022-10-02T11:50:29.193Z,76.29
2022-10-02T11:53:11.298Z,76.77
2022-10-02T11:55:50.407Z,77.12
2022-10-02T11:58:23.958Z,77.85
2022-10-02T12:01:05.768Z,74.68
2022-10-02T12:03:45.056Z,73.77
2022-10-02T12:06:19.453Z,73.54
2022-10-02T12:08:56.701Z,73.07
2022-10-02T12:11:32.564Z,73.38
2022-10-02T12:14:13.001Z,72.06
2022-10-02T12:16:48.837Z,72.67
2022-10-02T12:19:24.554Z,72.70
2022-10-02T12:22:19.047Z,73.27
2022-10-02T12:25:12.825Z,72.58
2022-10-02T12:27:50.894Z,72.95
2022-10-02T12:30:20.739Z,72.66
2022-10-02T12:33:20.505Z,73.23
2022-10-02T12:35:59.469Z,73.44
2022-10-02T12:38:36.466Z,72.79
2022-10-02T12:41:11.398Z,72.61
2022-10-02T12:44:00.365Z,71.38
2022-10-02T12:46:49.064Z,71.97
2022-10-02T12:49:31.278Z,72.81
2022-10-02T12:52:13.598Z,71.56
2022-10-02T12:55:29.328Z,71.63
2022-10-02T12:58:04.111Z,72.47
2022-10-02T13:00:41.839Z,70.86
2022-10-02T13:03:37.214Z,69.69
2022-10-02T13:06:45.121Z,69.89
2022-10-02T13:09:33.322Z,69.29
2022-10-02T13:12:12.671Z,69.95
2022-10-02T13:15:22.094Z,69.65
2022-10-02T13:17:55.913Z,70.42
2022-10-02T13:20:29.466Z,71.23
2022-10-02T13:23:07.137Z,71.40
2022-10-02T13:25:44.994Z,71.18
2022-10-02T13:28:47.109Z,69.80
2022-10-02T13:31:23.194Z,70.91
2022-10-02T13:34:06.406Z,71.77
2022-10-02T13:36:45.075Z,72.16
2022-10-02T13:39:21.079Z,72.02
2022-10-02T13:41:57.465Z,72.67
2022-10-02T13:44:33.345Z,74.16
2022-10-02T13:47:14.383Z,74.42
2022-10-02T13:49:56.211Z,73.77
2022-10-02T13:52:34.096Z,73.09
2022-10-02T13:55:12.132Z,71.85
2022-10-02T13:57:50.757Z,72.41
2022-10-02T14:00:24.994Z,73.37
2022-10-02T14:06:02.292Z,73.54
2022-10-02T14:08:58.935Z,74.96
2022-10-02T14:11:34.834Z,75.05
2022-10-02T14:14:15.954Z,75.75
2022-10-02T14:16:56.913Z,76.21
2022-10-02T14:19:38.431Z,76.23
2022-10-02T14:22:17.084Z,76.67
2022-10-02T14:25:04.150Z,76.76
2022-10-02T14:28:17.112Z,76.52
2022-10-02T14:30:56.314Z,76.83
2022-10-02T14:36:32.829Z,76.72
2022-10-02T14:39:14.378Z,77.03
2022-10-02T14:42:10.000Z,77.01
2022-10-02T14:44:58.162Z,77.46
2022-10-02T14:47:44.386Z,77.49
2022-10-02T14:50:38.237Z,77.44
2022-10-02T14:53:18.806Z,77.20
2022-10-02T14:56:06.951Z,77.62
2022-10-02T14:58:45.543Z,77.35
2022-10-02T15:01:21.338Z,77.61
2022-10-02T15:04:25.372Z,78.12
2022-10-02T15:07:07.853Z,78.28
2022-10-02T15:09:48.150Z,78.32
2022-10-02T15:12:19.928Z,78.28
2022-10-02T15:14:59.678Z,78.68
2022-10-02T15:17:53.473Z,79.34
2022-10-02T15:20:27.377Z,79.49
2022-10-02T15:22:58.862Z,79.65
2022-10-02T15:25:53.261Z,79.75
2022-10-02T15:28:36.701Z,80.35
2022-10-02T15:31:12.413Z,80.68
2022-10-02T15:33:42.308Z,80.50
2022-10-02T15:36:23.802Z,80.85
2022-10-02T15:39:14.091Z,81.05
2022-10-02T15:41:46.986Z,81.38
2022-10-02T15:44:44.777Z,81.58
2022-10-02T15:47:23.170Z,81.73
2022-10-02T15:50:06.489Z,82.03
2022-10-02T15:52:41.019Z,82.23
2022-10-02T15:55:19.901Z,82.98
2022-10-02T15:58:03.790Z,83.07
2022-10-02T16:00:53.615Z,83.30
2022-10-02T16:03:24.408Z,83.74
2022-10-02T16:05:54.242Z,83.91
2022-10-02T16:09:03.888Z,84.19
2022-10-02T16:12:11.447Z,84.27
2022-10-02T16:14:52.352Z,84.59
2022-10-02T16:17:30.231Z,84.92
2022-10-02T16:20:10.499Z,85.11
2022-10-02T16:22:51.343Z,85.34
2022-10-02T16:25:29.910Z,85.52
2022-10-02T16:28:09.164Z,85.76
2022-10-02T16:30:57.109Z,85.78
2022-10-02T16:33:29.517Z,86.01
2022-10-02T16:36:17.178Z,86.23
2022-10-02T16:38:49.475Z,86.55
2022-10-02T16:41:24.477Z,86.74
2022-10-02T16:44:00.167Z,86.96
2022-10-02T16:46:34.881Z,87.37
2022-10-02T16:49:09.424Z,87.67
2022-10-02T16:51:45.643Z,87.97
2022-10-02T16:54:18.324Z,88.23
2022-10-02T16:56:52.449Z,88.56
2022-10-02T16:59:25.362Z,88.83
2022-10-02T17:02:13.064Z,89.15
2022-10-02T17:04:52.389Z,89.37
2022-10-02T17:07:31.847Z,89.56
2022-10-02T17:10:07.328Z,89.79
2022-10-02T17:12:41.881Z,90.04
2022-10-02T17:15:19.056Z,90.21
2022-10-02T17:18:10.205Z,90.47
2022-10-02T17:20:43.735Z,90.72
2022-10-02T17:23:17.810Z,90.95
2022-10-02T17:25:52.174Z,91.11
2022-10-02T17:28:23.710Z,91.24
2022-10-02T17:31:06.339Z,91.31
2022-10-02T17:33:43.916Z,91.37
2022-10-02T17:36:19.342Z,91.52
2022-10-02T17:38:58.495Z,91.92
2022-10-02T17:41:37.622Z,92.10
2022-10-02T17:44:13.783Z,92.08
2022-10-02T17:46:55.611Z,92.24
2022-10-02T17:49:29.740Z,92.29
2022-10-02T17:52:24.132Z,92.46
2022-10-02T17:55:17.646Z,92.51
2022-10-02T17:57:53.979Z,92.52
2022-10-02T18:00:24.665Z,92.65
2022-10-02T18:03:03.137Z,92.69
2022-10-02T18:05:39.530Z,92.83
2022-10-02T18:08:17.737Z,93.02
2022-10-02T18:10:50.033Z,93.23
2022-10-02T18:13:26.286Z,93.37
2022-10-02T18:16:11.108Z,93.34
2022-10-02T18:18:40.653Z,93.47
2022-10-02T18:21:29.213Z,93.50
2022-10-02T18:24:13.106Z,93.58
2022-10-02T18:26:49.559Z,93.58
2022-10-02T18:29:37.711Z,93.64
2022-10-02T18:32:26.857Z,93.68
2022-10-02T18:35:28.446Z,93.57
2022-10-02T18:38:12.152Z,93.70
2022-10-02T18:40:54.186Z,93.84
2022-10-02T18:43:37.102Z,93.89
2022-10-02T18:46:13.699Z,93.90
2022-10-02T18:48:52.813Z,93.94
2022-10-02T18:51:31.791Z,94.02
2022-10-02T18:54:12.378Z,94.05
2022-10-02T18:56:55.762Z,94.10
2022-10-02T18:59:34.304Z,94.28
2022-10-02T19:02:11.720Z,94.26
2022-10-02T19:04:55.700Z,94.37
2022-10-02T19:07:29.400Z,94.40
2022-10-02T19:10:28.733Z,94.48
2022-10-02T19:13:01.093Z,94.38
2022-10-02T19:15:30.239Z,94.51
2022-10-02T19:18:00.020Z,94.50
2022-10-02T19:20:42.190Z,94.58
2022-10-02T19:23:18.083Z,94.63
2022-10-02T19:25:48.671Z,94.54
2022-10-02T19:28:18.781Z,94.59
2022-10-02T19:30:49.351Z,94.54
2022-10-02T19:33:21.720Z,94.43
2022-10-02T19:35:49.754Z,94.26
2022-10-02T19:38:31.226Z,94.19
2022-10-02T19:41:02.175Z,94.12
2022-10-02T19:43:32.466Z,94.05
2022-10-02T19:46:03.673Z,94.09
2022-10-02T19:48:32.900Z,94.00
2022-10-02T19:51:02.928Z,93.94
2022-10-02T19:53:34.475Z,93.85
2022-10-02T19:56:06.005Z,93.72
2022-10-02T19:58:37.212Z,93.69
2022-10-02T20:01:06.522Z,93.56
2022-10-02T20:03:34.670Z,93.50
2022-10-02T20:06:07.631Z,93.45
2022-10-02T20:08:39.345Z,93.39
2022-10-02T20:11:14.073Z,93.37
2022-10-02T20:13:45.147Z,93.26
2022-10-02T20:16:33.872Z,93.21
2022-10-02T20:19:03.238Z,93.09
2022-10-02T20:21:37.998Z,93.04
2022-10-02T20:24:09.375Z,93.16
2022-10-02T20:26:41.257Z,93.08
2022-10-02T20:29:15.694Z,93.02
2022-10-02T20:31:47.746Z,93.00
2022-10-02T20:34:24.795Z,93.03
2022-10-02T20:39:55.215Z,92.99
2022-10-02T20:42:29.324Z,93.11
2022-10-02T20:44:57.356Z,93.23
2022-10-02T20:47:51.787Z,93.18
2022-10-02T20:50:31.410Z,93.16
2022-10-02T20:53:23.753Z,93.07
2022-10-02T20:55:56.042Z,93.08
2022-10-02T20:58:58.352Z,93.16
2022-10-02T21:01:35.055Z,93.14
2022-10-02T21:04:17.526Z,93.07
2022-10-02T21:07:16.390Z,93.03
2022-10-02T21:10:16.438Z,92.99
2022-10-02T21:13:02.739Z,92.98
2022-10-02T21:15:54.676Z,92.98
2022-10-02T21:19:04.373Z,93.09
2022-10-02T21:22:05.366Z,93.14
2022-10-02T21:25:18.524Z,93.17
2022-10-02T21:28:06.278Z,93.28
2022-10-02T21:30:39.456Z,93.13
2022-10-02T21:33:19.001Z,93.22
2022-10-02T21:35:57.344Z,93.35
2022-10-02T21:38:39.534Z,93.31
2022-10-02T21:41:31.034Z,93.42
2022-10-02T21:44:28.524Z,93.54
2022-10-02T21:47:18.087Z,93.53
2022-10-02T21:50:21.533Z,93.73
2022-10-02T21:53:27.949Z,93.74
2022-10-02T21:56:08.764Z,93.86
2022-10-02T21:59:17.379Z,93.88
2022-10-02T22:02:08.272Z,93.87
2022-10-02T22:05:02.623Z,93.91
2022-10-02T22:07:36.186Z,93.92
2022-10-02T22:10:10.098Z,93.92
2022-10-02T22:12:47.394Z,93.90
2022-10-02T22:15:20.119Z,94.06
2022-10-02T22:17:57.336Z,94.00
2022-10-02T22:20:49.214Z,94.07
2022-10-02T22:23:32.839Z,94.09
2022-10-02T22:26:12.714Z,94.05
2022-10-02T22:28:44.786Z,94.13
2022-10-02T22:31:30.847Z,94.01
2022-10-02T22:34:07.071Z,93.99
2022-10-02T22:36:48.984Z,94.05
2022-10-02T22:39:23.705Z,94.02
2022-10-02T22:41:56.094Z,93.94
2022-10-02T22:44:26.007Z,93.93
2022-10-02T22:46:57.440Z,93.96
2022-10-02T22:49:31.368Z,93.99
2022-10-02T22:52:03.124Z,94.00
2022-10-02T22:54:40.407Z,94.02
2022-10-02T22:57:16.704Z,94.04
2022-10-02T22:59:47.724Z,94.07
2022-10-02T23:02:22.976Z,94.05
2022-10-02T23:04:53.899Z,94.14
2022-10-02T23:07:26.981Z,94.21
2022-10-02T23:10:01.201Z,94.18
2022-10-02T23:12:39.415Z,94.24
2022-10-02T23:15:26.111Z,94.23
2022-10-02T23:17:58.198Z,94.33
2022-10-02T23:20:30.223Z,94.36
2022-10-02T23:23:02.709Z,94.48
2022-10-02T23:25:37.236Z,94.40
2022-10-02T23:28:07.931Z,94.37
2022-10-02T23:30:39.700Z,94.49
2022-10-02T23:33:17.886Z,94.51
2022-10-02T23:35:49.440Z,94.59
2022-10-02T23:38:20.540Z,94.71
2022-10-02T23:41:20.609Z,94.89
2022-10-02T23:43:55.850Z,94.91
2022-10-02T23:46:28.289Z,94.89
2022-10-02T23:48:56.812Z,94.95
2022-10-02T23:51:31.944Z,94.91
2022-10-02T23:54:15.885Z,94.92
2022-10-02T23:57:01.449Z,94.93
2022-10-02T23:59:46.161Z,94.99
